Time;durP1;ratioP1;P1;durP2;ratioP2;P2;SDS_P1;SDS_P2;PMS_P1;PMS_P2;Temp;Humidity;BMP_temperature;BMP_pressure;BME280_temperature;BME280_humidity;BME280_pressure;Samples;Min_cycle;Max_cycle;Signal;HPM_P1;HPM_P2
2022/04/11 00:00:23;;;;;;;0.20;0.10;;;;;;;9.07;64.69;100930.56;5071129;28;20048;-78
2022/04/11 00:02:52;;;;;;;0.40;0.20;;;;;;;8.93;64.61;100927.44;5070887;28;20092;-74
2022/04/11 00:05:20;;;;;;;0.28;0.20;;;;;;;8.90;68.72;100914.41;5090019;28;20040;-75
2022/04/11 00:07:50;;;;;;;0.28;0.20;;;;;;;8.81;67.70;100911.47;5077087;28;20579;-73
2022/04/11 00:10:19;;;;;;;0.52;0.10;;;;;;;8.75;68.79;100906.06;5069846;28;20092;-74
2022/04/11 00:12:48;;;;;;;0.30;0.20;;;;;;;8.65;68.25;100904.81;5069031;28;20497;-75
2022/04/11 00:15:16;;;;;;;0.73;0.10;;;;;;;8.55;69.82;100892.41;5071364;28;20076;-73
2022/04/11 00:17:44;;;;;;;0.93;0.40;;;;;;;8.54;72.23;100896.69;5070901;28;20060;-74
2022/04/11 00:20:13;;;;;;;0.20;0.10;;;;;;;8.41;70.55;100884.13;5070183;28;20090;-79
2022/04/11 00:22:41;;;;;;;0.60;0.30;;;;;;;8.33;72.71;100881.16;5069558;28;20233;-73
2022/04/11 00:25:12;;;;;;;0.35;0.20;;;;;;;8.29;73.21;100873.25;5068776;28;20101;-77
2022/04/11 00:27:41;;;;;;;1.65;0.50;;;;;;;8.28;76.46;100866.34;5068910;28;20120;-77
2022/04/11 00:30:11;;;;;;;0.20;0.20;;;;;;;8.24;74.94;100861.88;5068916;28;20560;-75
2022/04/11 00:32:41;;;;;;;2.33;0.20;;;;;;;8.10;77.69;100845.84;5069074;28;20124;-71
2022/04/11 00:35:10;;;;;;;0.52;0.20;;;;;;;8.04;78.52;100855.91;5069248;28;20048;-73
2022/04/11 00:37:39;;;;;;;0.77;0.30;;;;;;;8.06;79.52;100850.00;5068477;28;20567;-74
2022/04/11 00:40:09;;;;;;;0.20;0.17;;;;;;;8.07;82.84;100840.59;5069549;28;20048;-71
2022/04/11 00:42:39;;;;;;;0.52;0.35;;;;;;;7.93;79.60;100838.31;5068793;28;20056;-74
2022/04/11 00:45:08;;;;;;;0.47;0.25;;;;;;;7.91;81.59;100823.63;5068941;28;20173;-72
2022/04/11 00:47:37;;;;;;;1.40;0.32;;;;;;;7.82;81.47;100825.81;5068889;28;20129;-72
2022/04/11 00:50:07;;;;;;;1.00;0.30;;;;;;;7.80;84.32;100815.44;5068272;28;20075;-77
2022/04/11 00:52:41;;;;;;;1.40;0.30;;;;;;;7.80;84.62;100814.56;5068195;28;20049;-70
2022/04/11 00:55:10;;;;;;;2.30;0.32;;;;;;;7.84;89.32;100801.00;5068573;28;20052;-72
2022/04/11 00:57:40;;;;;;;0.28;0.22;;;;;;;7.87;91.56;100801.13;5068366;28;20044;-71
2022/04/11 01:00:13;;;;;;;0.47;0.28;;;;;;;7.84;90.29;100790.69;5069034;28;20045;-71
2022/04/11 01:02:41;;;;;;;0.70;0.20;;;;;;;7.82;91.89;100776.88;5068296;28;20410;-72
2022/04/11 01:05:11;;;;;;;0.10;0.10;;;;;;;7.86;91.66;100777.06;5068170;28;20097;-70
2022/04/11 01:07:41;;;;;;;0.75;0.22;;;;;;;7.91;90.85;100779.81;5067778;28;20106;-70
2022/04/11 01:10:11;;;;;;;2.33;0.40;;;;;;;7.89;88.73;100761.72;5068178;28;20056;-71
2022/04/11 01:12:42;;;;;;;1.13;0.35;;;;;;;7.95;90.87;100763.69;5070686;28;20462;-69
2022/04/11 01:15:11;;;;;;;0.73;0.40;;;;;;;7.99;93.04;100744.91;5069336;28;20049;-69
2022/04/11 01:17:41;;;;;;;0.98;0.32;;;;;;;8.01;92.23;100735.56;5069122;28;20092;-70
2022/04/11 01:20:11;;;;;;;0.52;0.22;;;;;;;7.99;90.89;100724.31;5067721;28;20044;-70
2022/04/11 01:22:42;;;;;;;0.45;0.32;;;;;;;8.03;90.95;100733.91;5067929;28;20094;-70
2022/04/11 01:25:12;;;;;;;0.93;0.38;;;;;;;8.05;90.77;100729.72;5067749;28;20045;-68
2022/04/11 01:27:42;;;;;;;1.67;0.17;;;;;;;8.05;90.36;100719.41;5068482;28;20114;-70
2022/04/11 01:30:13;;;;;;;0.52;0.20;;;;;;;7.99;89.25;100703.69;5067842;28;20084;-71
2022/04/11 01:32:41;;;;;;;0.47;0.20;;;;;;;8.05;88.84;100706.50;5068024;28;20105;-71
2022/04/11 01:35:20;;;;;;;1.17;0.28;;;;;;;8.06;87.67;100709.97;5068346;28;20049;-70
2022/04/11 01:37:50;;;;;;;0.82;0.30;;;;;;;8.03;88.04;100692.69;5068452;28;20482;-71
2022/04/11 01:40:18;;;;;;;0.52;0.20;;;;;;;8.05;89.11;100690.19;5068804;28;20040;-70
2022/04/11 01:42:47;;;;;;;0.90;0.28;;;;;;;8.02;89.80;100685.78;5067602;28;20048;-70
2022/04/11 01:45:16;;;;;;;0.43;0.20;;;;;;;7.97;90.69;100665.00;5068041;28;20498;-70
2022/04/11 01:47:46;;;;;;;1.38;0.60;;;;;;;7.86;92.18;100660.25;5067615;28;20091;-70
2022/04/11 01:50:14;;;;;;;0.30;0.20;;;;;;;7.80;92.95;100658.31;5068729;28;20061;-69
2022/04/11 01:52:43;;;;;;;0.40;0.30;;;;;;;7.83;94.08;100650.69;5067689;28;20106;-70
2022/04/11 01:55:13;;;;;;;2.15;0.40;;;;;;;7.84;95.10;100643.88;5068239;28;20090;-69
2022/04/11 01:57:41;;;;;;;0.10;0.10;;;;;;;7.83;98.08;100635.22;5068405;28;20049;-69
2022/04/11 02:00:11;;;;;;;9.95;4.38;;;;;;;7.84;100.00;100630.97;5068570;28;20490;-70
2022/04/11 02:02:40;;;;;;;5.90;3.20;;;;;;;7.84;100.00;100618.09;5067738;28;20052;-70
2022/04/11 02:05:09;;;;;;;9.73;4.32;;;;;;;7.80;100.00;100598.19;5068296;28;20490;-71
2022/04/11 02:07:37;;;;;;;1.80;0.82;;;;;;;7.76;100.00;100592.94;5068727;28;20132;-71
2022/04/11 02:10:06;;;;;;;2.97;0.60;;;;;;;7.76;100.00;100587.78;5071098;28;20044;-70
2022/04/11 02:12:36;;;;;;;0.25;0.17;;;;;;;7.76;100.00;100576.56;5068082;28;20049;-72
2022/04/11 02:15:06;;;;;;;1.42;0.40;;;;;;;7.75;100.00;100570.56;5068293;28;20053;-70
2022/04/11 02:17:34;;;;;;;0.35;0.20;;;;;;;7.74;100.00;100558.50;5068736;28;20151;-71
2022/04/11 02:20:03;;;;;;;1.17;0.82;;;;;;;7.70;100.00;100543.75;5068848;28;20084;-69
2022/04/11 02:22:43;;;;;;;1.42;0.70;;;;;;;7.61;100.00;100535.69;5071076;28;20494;-71
2022/04/11 02:25:12;;;;;;;0.50;0.38;;;;;;;7.52;100.00;100530.19;5071156;28;20190;-70
2022/04/11 02:27:42;;;;;;;0.52;0.40;;;;;;;7.40;100.00;100519.41;5071137;28;20044;-70
2022/04/11 02:30:12;;;;;;;1.48;0.35;;;;;;;7.29;100.00;100517.31;5071708;28;20098;-71
2022/04/11 02:32:40;;;;;;;0.47;0.30;;;;;;;7.21;100.00;100510.97;5071085;28;20055;-68
2022/04/11 02:35:10;;;;;;;1.13;0.30;;;;;;;7.16;100.00;100499.63;5071523;28;20513;-70
2022/04/11 02:37:39;;;;;;;1.40;0.40;;;;;;;7.17;100.00;100496.25;5071292;28;20414;-69
2022/04/11 02:40:09;;;;;;;0.40;0.30;;;;;;;7.18;100.00;100482.56;5071593;28;20102;-70
2022/04/11 02:42:37;;;;;;;0.63;0.30;;;;;;;7.22;100.00;100479.28;5070896;28;20052;-70
2022/04/11 02:45:09;;;;;;;1.00;0.28;;;;;;;7.20;100.00;100470.63;5071063;28;20473;-71
2022/04/11 02:47:37;;;;;;;2.20;0.30;;;;;;;7.20;100.00;100462.03;5071068;28;20446;-73
2022/04/11 02:50:06;;;;;;;0.55;0.15;;;;;;;7.20;100.00;100455.19;5070970;28;20060;-71
2022/04/11 02:52:35;;;;;;;0.17;0.13;;;;;;;7.18;100.00;100449.09;5071422;28;20044;-68
2022/04/11 02:55:04;;;;;;;0.85;0.20;;;;;;;7.18;100.00;100440.53;5071024;28;20105;-71
2022/04/11 02:57:33;;;;;;;0.20;0.20;;;;;;;7.12;100.00;100433.44;5071111;28;20105;-71
2022/04/11 03:00:01;;;;;;;0.22;0.17;;;;;;;7.08;100.00;100419.59;5070714;28;20091;-71
2022/04/11 03:02:31;;;;;;;0.40;0.20;;;;;;;7.05;100.00;100403.16;5070422;28;20052;-71
2022/04/11 03:05:00;;;;;;;1.77;0.10;;;;;;;7.04;100.00;100403.97;5071318;28;20080;-71
2022/04/11 03:07:30;;;;;;;1.17;0.30;;;;;;;7.02;100.00;100393.63;5055333;28;20055;-72
2022/04/11 03:09:59;;;;;;;0.65;0.13;;;;;;;7.06;100.00;100384.34;5070976;28;20080;-69
2022/04/11 03:12:27;;;;;;;0.40;0.30;;;;;;;7.06;100.00;100376.63;5070563;28;20126;-70
2022/04/11 03:14:56;;;;;;;1.42;0.30;;;;;;;7.03;100.00;100373.91;5070987;28;20122;-70
2022/04/11 03:17:24;;;;;;;0.43;0.20;;;;;;;7.01;100.00;100366.16;5070290;28;20048;-69
2022/04/11 03:19:54;;;;;;;0.38;0.20;;;;;;;6.99;100.00;100356.63;5070049;28;20502;-69
2022/04/11 03:22:23;;;;;;;1.00;0.25;;;;;;;6.97;100.00;100358.25;5070662;28;20134;-70
2022/04/11 03:24:51;;;;;;;0.88;0.30;;;;;;;6.96;100.00;100348.78;5070658;28;20049;-72
2022/04/11 03:27:20;;;;;;;0.50;0.30;;;;;;;6.94;100.00;100333.31;5070226;28;20048;-69
2022/04/11 03:29:48;;;;;;;0.52;0.45;;;;;;;6.95;100.00;100323.91;5070153;28;20135;-70
2022/04/11 03:32:16;;;;;;;2.30;0.30;;;;;;;6.92;100.00;100322.97;5069888;28;20040;-69
2022/04/11 03:34:45;;;;;;;0.65;0.25;;;;;;;6.89;100.00;100310.00;5070323;28;20165;-70
2022/04/11 03:37:15;;;;;;;1.45;0.43;;;;;;;6.87;100.00;100308.16;5069834;28;20095;-68
2022/04/11 03:39:43;;;;;;;1.15;0.63;;;;;;;6.83;100.00;100309.75;5070423;28;20049;-70
2022/04/11 03:42:12;;;;;;;0.17;0.10;;;;;;;6.79;100.00;100299.28;5069967;28;20083;-69
2022/04/11 03:44:42;;;;;;;0.55;0.45;;;;;;;6.76;100.00;100286.31;5070368;28;20045;-69
2022/04/11 03:47:11;;;;;;;1.20;0.30;;;;;;;6.73;100.00;100274.22;5070638;28;20122;-70
2022/04/11 03:49:39;;;;;;;0.47;0.30;;;;;;;6.68;100.00;100273.19;5070084;28;20106;-69
2022/04/11 03:52:09;;;;;;;0.70;0.30;;;;;;;6.63;100.00;100254.13;5069661;28;20049;-69
2022/04/11 03:54:39;;;;;;;1.55;0.65;;;;;;;6.60;100.00;100243.75;5069940;28;20055;-69
2022/04/11 03:57:07;;;;;;;1.15;0.73;;;;;;;6.55;100.00;100234.97;5070083;28;20460;-70
2022/04/11 03:59:38;;;;;;;1.23;0.70;;;;;;;6.49;100.00;100220.22;5069681;28;20102;-68
2022/04/11 04:02:06;;;;;;;0.88;0.30;;;;;;;6.39;100.00;100207.81;5070684;28;20075;-69
2022/04/11 04:04:35;;;;;;;0.28;0.20;;;;;;;6.34;100.00;100215.34;5072483;28;20049;-68
2022/04/11 04:07:03;;;;;;;2.53;0.52;;;;;;;6.24;100.00;100200.44;5070912;28;20080;-69
2022/04/11 04:09:32;;;;;;;1.08;0.30;;;;;;;6.15;100.00;100184.66;5068736;28;20040;-69
2022/04/11 04:12:02;;;;;;;0.38;0.20;;;;;;;6.07;100.00;100180.13;5069694;28;20052;-68
2022/04/11 04:14:30;;;;;;;0.15;0.10;;;;;;;5.99;100.00;100180.63;5069600;28;20094;-69
2022/04/11 04:16:59;;;;;;;0.35;0.17;;;;;;;5.91;100.00;100164.91;5069998;28;20052;-69
2022/04/11 04:19:34;;;;;;;1.48;0.38;;;;;;;5.83;100.00;100163.72;5067989;28;20056;-68
2022/04/11 04:22:02;;;;;;;0.10;0.10;;;;;;;5.74;100.00;100153.09;5069412;28;20048;-68
2022/04/11 04:24:30;;;;;;;0.68;0.10;;;;;;;5.59;100.00;100143.09;5068858;28;20087;-68
2022/04/11 04:27:01;;;;;;;0.40;0.30;;;;;;;5.52;100.00;100136.88;5069465;28;20041;-68
2022/04/11 04:29:29;;;;;;;0.40;0.32;;;;;;;5.42;100.00;100124.47;5068993;28;20048;-69
2022/04/11 04:31:58;;;;;;;0.10;0.10;;;;;;;5.35;100.00;100120.78;5069261;28;20091;-70
2022/04/11 04:34:29;;;;;;;0.32;0.20;;;;;;;5.30;100.00;100118.84;5068946;28;20076;-70
2022/04/11 04:36:58;;;;;;;0.10;0.10;;;;;;;5.24;100.00;100110.09;5069455;28;20109;-70
2022/04/11 04:39:26;;;;;;;0.10;0.08;;;;;;;5.10;100.00;100100.94;5068872;28;20442;-71
2022/04/11 04:41:55;;;;;;;0.20;0.10;;;;;;;4.88;100.00;100090.63;5068648;28;20044;-71
2022/04/11 04:44:25;;;;;;;0.10;0.10;;;;;;;4.77;100.00;100088.50;5068565;28;20106;-70
2022/04/11 04:46:53;;;;;;;0.10;0.10;;;;;;;4.69;100.00;100071.91;5068361;28;20145;-71
2022/04/11 04:49:22;;;;;;;0.50;0.22;;;;;;;4.54;100.00;100066.16;5068722;28;20083;-73
2022/04/11 04:51:50;;;;;;;1.55;0.10;;;;;;;4.53;100.00;100064.38;5068406;28;20139;-70
2022/04/11 04:54:19;;;;;;;0.10;0.10;;;;;;;4.47;100.00;100033.41;5068459;28;20135;-71
2022/04/11 04:56:49;;;;;;;0.10;0.10;;;;;;;4.51;100.00;100041.28;5048783;28;20521;-70
2022/04/11 04:59:17;;;;;;;0.03;0.03;;;;;;;4.43;100.00;100027.28;5055204;28;20040;-70
2022/04/11 05:01:47;;;;;;;0.40;0.20;;;;;;;4.38;100.00;100019.38;5072242;28;20055;-69
2022/04/11 05:04:16;;;;;;;0.28;0.20;;;;;;;4.26;100.00;100007.72;5069142;28;20490;-68
2022/04/11 05:06:44;;;;;;;0.10;0.10;;;;;;;4.24;100.00;99997.44;5088956;28;20101;-68
2022/04/11 05:09:13;;;;;;;0.17;0.17;;;;;;;4.26;100.00;99977.91;5088546;28;20498;-69
2022/04/11 05:11:49;;;;;;;0.45;0.20;;;;;;;4.23;100.00;99967.50;5088623;28;20048;-67
2022/04/11 05:14:18;;;;;;;0.28;0.10;;;;;;;4.22;100.00;99949.53;5077274;28;20482;-67
2022/04/11 05:16:48;;;;;;;0.40;0.20;;;;;;;4.18;100.00;99944.28;5068052;28;20076;-68
2022/04/11 05:19:23;;;;;;;0.45;0.25;;;;;;;4.10;100.00;99929.41;5069211;28;20131;-68
2022/04/11 05:21:58;;;;;;;0.30;0.30;;;;;;;4.04;100.00;99918.91;5068309;28;20052;-68
2022/04/11 05:24:26;;;;;;;0.55;0.30;;;;;;;3.97;100.00;99908.41;5068734;28;20460;-68
2022/04/11 05:26:54;;;;;;;0.20;0.20;;;;;;;4.00;100.00;99907.66;5068087;28;20490;-68
2022/04/11 05:29:23;;;;;;;0.20;0.20;;;;;;;4.01;100.00;99904.31;5068505;28;20040;-69
2022/04/11 05:31:53;;;;;;;0.28;0.10;;;;;;;3.99;100.00;99878.63;5068263;28;20052;-69
2022/04/11 05:34:21;;;;;;;0.43;0.30;;;;;;;3.98;100.00;99869.19;5068411;28;20113;-69
2022/04/11 05:36:50;;;;;;;0.38;0.22;;;;;;;3.98;100.00;99856.41;5067998;28;20049;-67
2022/04/11 05:39:18;;;;;;;0.60;0.28;;;;;;;3.99;100.00;99858.16;5068487;28;20095;-67
2022/04/11 05:41:46;;;;;;;0.10;0.10;;;;;;;4.00;100.00;99851.34;5067947;28;20102;-68
2022/04/11 05:44:16;;;;;;;0.40;0.30;;;;;;;3.98;100.00;99845.28;5067874;28;20102;-68
2022/04/11 05:46:46;;;;;;;1.25;0.35;;;;;;;3.94;100.00;99826.41;5068400;28;20052;-69
2022/04/11 05:49:16;;;;;;;0.50;0.25;;;;;;;3.86;100.00;99812.41;5068255;28;20529;-68
2022/04/11 05:51:44;;;;;;;0.28;0.10;;;;;;;3.76;100.00;99803.47;5068026;28;20136;-68
2022/04/11 05:54:12;;;;;;;0.43;0.20;;;;;;;3.74;100.00;99796.56;5068332;28;20087;-68
2022/04/11 05:56:41;;;;;;;0.45;0.20;;;;;;;3.71;100.00;99779.41;5071597;28;20048;-68
2022/04/11 05:59:10;;;;;;;0.30;0.20;;;;;;;3.64;100.00;99762.06;5073254;28;20041;-69
2022/04/11 06:01:40;;;;;;;0.30;0.20;;;;;;;3.72;100.00;99759.78;5074977;28;20094;-68
2022/04/11 06:04:08;;;;;;;1.17;0.30;;;;;;;3.71;100.00;99750.34;5072237;28;20040;-69
2022/04/11 06:06:39;;;;;;;0.85;0.40;;;;;;;3.70;100.00;99733.28;5072062;28;20047;-68
2022/04/11 06:09:07;;;;;;;0.52;0.45;;;;;;;3.72;100.00;99722.28;5071666;28;20053;-68
2022/04/11 06:11:36;;;;;;;2.10;0.40;;;;;;;3.71;100.00;99709.41;5071959;28;20064;-67
2022/04/11 06:14:04;;;;;;;0.40;0.20;;;;;;;3.70;100.00;99702.56;5071784;28;20082;-68
2022/04/11 06:16:32;;;;;;;0.25;0.25;;;;;;;3.72;100.00;99690.72;5071623;28;20490;-69
2022/04/11 06:19:07;;;;;;;0.30;0.30;;;;;;;3.71;100.00;99677.06;5073454;27;20052;-68
2022/04/11 06:21:35;;;;;;;0.95;0.40;;;;;;;3.74;100.00;99666.06;5072249;28;20044;-69
2022/04/11 06:24:06;;;;;;;2.63;0.17;;;;;;;3.74;100.00;99649.03;5071422;28;20751;-68
2022/04/11 06:26:35;;;;;;;0.32;0.20;;;;;;;3.74;100.00;99632.81;5071574;28;20076;-69
2022/04/11 06:29:03;;;;;;;0.35;0.35;;;;;;;3.69;100.00;99621.53;5071402;28;20516;-70
2022/04/11 06:31:32;;;;;;;0.43;0.30;;;;;;;3.70;100.00;99615.59;5071233;28;20045;-69
2022/04/11 06:34:00;;;;;;;1.17;0.20;;;;;;;3.68;100.00;99612.97;5071407;28;20639;-70
2022/04/11 06:36:29;;;;;;;0.52;0.38;;;;;;;3.63;100.00;99580.34;5071203;28;20106;-68
2022/04/11 06:38:57;;;;;;;1.95;0.30;;;;;;;3.70;100.00;99579.78;5071776;28;20159;-68
2022/04/11 06:41:27;;;;;;;0.22;0.20;;;;;;;3.67;100.00;99565.19;5071347;28;20037;-68
2022/04/11 06:43:56;;;;;;;0.60;0.20;;;;;;;3.73;100.00;99555.19;5071162;28;20076;-68
2022/04/11 06:46:24;;;;;;;0.30;0.20;;;;;;;3.72;100.00;99537.22;5071046;28;20476;-70
2022/04/11 06:48:52;;;;;;;1.17;0.28;;;;;;;3.79;100.00;99534.06;5070878;28;20502;-69
2022/04/11 06:51:21;;;;;;;1.27;0.30;;;;;;;3.86;100.00;99522.38;5070335;28;20052;-71
2022/04/11 06:53:50;;;;;;;0.40;0.30;;;;;;;3.91;100.00;99508.91;5070711;28;20193;-70
2022/04/11 06:56:18;;;;;;;0.32;0.30;;;;;;;3.97;100.00;99504.03;5070619;28;20141;-69
2022/04/11 06:58:48;;;;;;;0.70;0.30;;;;;;;4.05;100.00;99480.38;5073272;28;20084;-69
2022/04/11 07:01:17;;;;;;;1.42;0.25;;;;;;;4.08;100.00;99466.03;5071646;28;20119;-68
2022/04/11 07:03:45;;;;;;;0.40;0.30;;;;;;;4.11;100.00;99457.56;5070539;28;20102;-68
2022/04/11 07:06:14;;;;;;;4.75;0.30;;;;;;;4.07;100.00;99438.66;5069311;28;20615;-68
2022/04/11 07:08:42;;;;;;;0.30;0.25;;;;;;;4.15;100.00;99426.16;5070578;28;20048;-68
2022/04/11 07:11:11;;;;;;;1.02;0.43;;;;;;;4.16;100.00;99412.50;5070458;28;20098;-67
2022/04/11 07:13:39;;;;;;;0.30;0.22;;;;;;;4.14;100.00;99404.75;5070788;28;20083;-68
2022/04/11 07:16:10;;;;;;;0.43;0.30;;;;;;;4.12;100.00;99392.75;5070307;28;20051;-68
2022/04/11 07:18:38;;;;;;;0.32;0.20;;;;;;;4.14;100.00;99378.31;5071698;28;20084;-67
2022/04/11 07:21:07;;;;;;;0.30;0.30;;;;;;;4.16;100.00;99362.16;5070249;28;20132;-68
2022/04/11 07:23:35;;;;;;;0.17;0.10;;;;;;;4.20;100.00;99347.78;5071054;28;20052;-67
2022/04/11 07:26:04;;;;;;;0.55;0.22;;;;;;;4.20;100.00;99332.44;5070986;28;20079;-68
2022/04/11 07:28:32;;;;;;;0.15;0.15;;;;;;;4.20;100.00;99312.81;5070603;28;20098;-68
2022/04/11 07:31:01;;;;;;;0.98;0.50;;;;;;;4.23;100.00;99303.50;5070753;28;20056;-69
2022/04/11 07:33:31;;;;;;;0.10;0.10;;;;;;;4.28;100.00;99279.75;5070089;28;20098;-69
2022/04/11 07:35:59;;;;;;;0.68;0.17;;;;;;;4.35;100.00;99263.78;5070554;28;20500;-68
2022/04/11 07:38:28;;;;;;;0.52;0.30;;;;;;;4.40;100.00;99249.41;5070374;28;20139;-67
2022/04/11 07:40:56;;;;;;;0.60;0.20;;;;;;;4.46;100.00;99237.63;5070579;28;20052;-67
2022/04/11 07:43:25;;;;;;;0.38;0.30;;;;;;;4.46;100.00;99217.13;5069992;28;20087;-67
2022/04/11 07:45:53;;;;;;;0.32;0.20;;;;;;;4.49;100.00;99212.97;5069851;28;20135;-68
2022/04/11 07:48:22;;;;;;;0.80;0.20;;;;;;;4.53;100.00;99195.97;5070279;28;20070;-68
2022/04/11 07:50:52;;;;;;;0.25;0.25;;;;;;;4.59;100.00;99196.16;5069652;28;20106;-68
2022/04/11 07:53:20;;;;;;;0.00;0.00;;;;;;;4.64;100.00;99192.03;5070151;28;20502;-68
2022/04/11 07:55:48;;;;;;;0.10;0.10;;;;;;;4.69;100.00;99182.78;5070089;28;20098;-68
2022/04/11 07:58:18;;;;;;;0.30;0.28;;;;;;;4.75;100.00;99162.47;5073969;28;20044;-67
2022/04/11 08:00:50;;;;;;;0.20;0.10;;;;;;;4.81;100.00;99154.94;5070599;28;20071;-69
2022/04/11 08:03:20;;;;;;;0.85;0.10;;;;;;;4.86;100.00;99156.78;5070024;28;20132;-68
2022/04/11 08:05:48;;;;;;;0.17;0.00;;;;;;;4.91;100.00;99142.38;5069550;28;20048;-68
2022/04/11 08:08:18;;;;;;;0.55;0.25;;;;;;;4.94;100.00;99120.22;5069875;28;20128;-68
2022/04/11 08:10:47;;;;;;;0.10;0.10;;;;;;;4.97;100.00;99110.09;5069557;28;20084;-68
2022/04/11 08:13:15;;;;;;;0.85;0.22;;;;;;;4.93;100.00;99102.28;5069588;28;20044;-69
2022/04/11 08:15:44;;;;;;;0.80;0.30;;;;;;;4.86;100.00;99091.00;5069413;28;20083;-68
2022/04/11 08:18:12;;;;;;;0.10;0.10;;;;;;;4.79;100.00;99082.28;5070118;27;20063;-67
2022/04/11 08:20:40;;;;;;;0.22;0.20;;;;;;;4.75;100.00;99072.78;5069803;28;20494;-66
2022/04/11 08:23:09;;;;;;;1.27;0.30;;;;;;;4.70;100.00;99064.13;5069521;28;20102;-67
2022/04/11 08:25:39;;;;;;;0.13;0.13;;;;;;;4.62;100.00;99048.53;5069678;28;20053;-66
2022/04/11 08:28:08;;;;;;;0.32;0.22;;;;;;;4.55;100.00;99038.94;5069621;28;20048;-67
2022/04/11 08:30:36;;;;;;;0.10;0.10;;;;;;;4.51;100.00;99028.59;5069649;28;20056;-66
2022/04/11 08:33:05;;;;;;;0.10;0.10;;;;;;;4.46;100.00;99023.34;5069661;28;20605;-67
2022/04/11 08:35:33;;;;;;;0.20;0.20;;;;;;;4.42;100.00;99001.03;5069260;28;20052;-67
2022/04/11 08:38:02;;;;;;;0.30;0.20;;;;;;;4.37;100.00;98998.34;5069979;28;20110;-67
2022/04/11 08:40:31;;;;;;;2.40;0.30;;;;;;;4.33;100.00;98991.44;5069561;28;20124;-66
2022/04/11 08:43:02;;;;;;;0.20;0.20;;;;;;;4.27;100.00;98985.31;5068676;28;20060;-67
2022/04/11 08:45:31;;;;;;;0.10;0.10;;;;;;;4.26;100.00;98997.25;5069531;28;20041;-68
2022/04/11 08:48:00;;;;;;;0.20;0.20;;;;;;;4.27;100.00;98998.09;5069059;28;20113;-68
2022/04/11 08:50:36;;;;;;;0.10;0.10;;;;;;;4.29;100.00;98996.44;5069303;28;20051;-68
2022/04/11 08:53:04;;;;;;;0.10;0.10;;;;;;;4.29;100.00;98988.78;5068468;28;20060;-67
2022/04/11 08:55:34;;;;;;;0.10;0.10;;;;;;;4.25;100.00;98979.28;5070306;28;20053;-67
2022/04/11 08:58:04;;;;;;;0.45;0.03;;;;;;;4.18;100.00;98966.31;5070363;28;20045;-67
2022/04/11 09:00:33;;;;;;;0.00;0.00;;;;;;;4.13;100.00;98961.91;5069047;28;20127;-67
2022/04/11 09:03:01;;;;;;;0.00;0.00;;;;;;;4.07;100.00;98961.72;5068664;28;20040;-67
2022/04/11 09:05:31;;;;;;;0.00;0.00;;;;;;;4.06;100.00;98960.00;5068192;28;20152;-67
2022/04/11 09:08:01;;;;;;;0.00;0.00;;;;;;;4.03;100.00;98959.91;5060216;28;20493;-67
2022/04/11 09:10:32;;;;;;;0.00;0.00;;;;;;;4.02;100.00;98963.31;5068590;28;20045;-67
2022/04/11 09:13:04;;;;;;;0.10;0.00;;;;;;;4.00;100.00;98950.47;5068872;28;20064;-69
2022/04/11 09:15:41;;;;;;;1.10;0.10;;;;;;;3.95;100.00;98934.97;5068449;28;20056;-67
2022/04/11 09:18:09;;;;;;;0.00;0.00;;;;;;;3.89;100.00;98937.38;5069278;27;20051;-68
2022/04/11 09:20:43;;;;;;;0.00;0.00;;;;;;;3.85;100.00;98935.59;5068085;28;20094;-67
2022/04/11 09:23:20;;;;;;;0.00;0.00;;;;;;;3.81;100.00;98926.09;5068487;28;20087;-68
2022/04/11 09:25:48;;;;;;;0.00;0.00;;;;;;;3.76;100.00;98923.41;5068378;28;20070;-68
2022/04/11 09:28:19;;;;;;;0.30;0.05;;;;;;;3.73;100.00;98917.31;5068959;28;20506;-68
2022/04/11 09:30:49;;;;;;;0.00;0.00;;;;;;;3.69;100.00;98907.84;5067311;28;20084;-68
2022/04/11 09:33:18;;;;;;;0.52;0.00;;;;;;;3.68;100.00;98906.09;5067924;28;20049;-68
2022/04/11 09:35:48;;;;;;;0.05;0.05;;;;;;;3.64;100.00;98900.06;5068185;28;20496;-68
2022/04/11 09:38:17;;;;;;;0.10;0.00;;;;;;;3.64;100.00;98891.50;5068599;28;20490;-69
2022/04/11 09:40:48;;;;;;;0.08;0.00;;;;;;;3.60;100.00;98872.66;5068552;28;20048;-68
2022/04/11 09:43:19;;;;;;;0.22;0.15;;;;;;;3.63;100.00;98882.97;5063660;28;20078;-69
2022/04/11 09:45:50;;;;;;;2.35;0.10;;;;;;;3.64;100.00;98873.59;5061270;28;20051;-68
2022/04/11 09:48:19;;;;;;;0.00;0.00;;;;;;;3.66;100.00;98871.94;5067966;28;20049;-69
2022/04/11 09:50:49;;;;;;;0.00;0.00;;;;;;;3.68;100.00;98875.41;5068146;28;20076;-69
2022/04/11 09:53:19;;;;;;;0.13;0.03;;;;;;;3.68;100.00;98883.09;5067550;28;20140;-69
2022/04/11 09:55:50;;;;;;;0.00;0.00;;;;;;;3.67;100.00;98889.91;5070872;28;20075;-70
2022/04/11 09:58:21;;;;;;;0.00;0.00;;;;;;;3.69;100.00;98897.63;5068603;28;20084;-69
2022/04/11 10:00:51;;;;;;;2.70;0.63;;;;;;;3.68;100.00;98901.84;5068354;28;20040;-69
2022/04/11 10:03:23;;;;;;;3.97;1.10;;;;;;;3.69;100.00;98907.84;5067879;28;20105;-70
2022/04/11 10:05:52;;;;;;;0.00;0.00;;;;;;;3.70;100.00;98907.00;5076833;28;20126;-70
2022/04/11 10:08:20;;;;;;;0.00;0.00;;;;;;;3.67;100.00;98917.19;5087783;28;20532;-69
2022/04/11 10:10:49;;;;;;;0.00;0.00;;;;;;;3.65;100.00;98917.13;5087993;28;20056;-70
2022/04/11 10:13:19;;;;;;;2.30;0.60;;;;;;;3.65;100.00;98916.25;5076311;28;20084;-68
2022/04/11 10:15:50;;;;;;;0.88;0.20;;;;;;;3.65;100.00;98917.13;5066975;28;20118;-68
2022/04/11 10:18:25;;;;;;;0.10;0.10;;;;;;;3.66;100.00;98917.97;5068743;28;20426;-68
2022/04/11 10:20:59;;;;;;;0.30;0.20;;;;;;;3.65;100.00;98922.22;5067851;28;20052;-67
2022/04/11 10:23:34;;;;;;;0.30;0.10;;;;;;;3.63;100.00;98931.56;5067207;28;20048;-68
2022/04/11 10:26:20;;;;;;;12.93;3.83;;;;;;;3.62;100.00;98931.50;5067355;28;20101;-68
2022/04/11 10:28:52;;;;;;;2.67;1.10;;;;;;;3.60;100.00;98933.16;5067694;28;20052;-68
2022/04/11 10:31:21;;;;;;;0.40;0.22;;;;;;;3.59;100.00;98946.78;5067367;28;20067;-68
2022/04/11 10:33:51;;;;;;;0.25;0.20;;;;;;;3.55;100.00;98946.69;5067060;28;20098;-68
2022/04/11 10:36:30;;;;;;;1.08;0.25;;;;;;;3.53;100.00;98952.59;5067904;28;20103;-68
2022/04/11 10:39:26;;;;;;;5.05;2.22;;;;;;;3.50;100.00;98960.16;5067834;28;20060;-68
2022/04/11 10:42:14;;;;;;;6.18;2.05;;;;;;;3.49;100.00;98969.53;5069724;28;20118;-67
2022/04/11 10:44:45;;;;;;;1.98;0.90;;;;;;;3.41;100.00;98942.84;5071289;28;20133;-68
2022/04/11 10:47:34;;;;;;;2.20;0.25;;;;;;;3.44;100.00;98963.41;5071314;28;20048;-68
2022/04/11 10:50:21;;;;;;;1.77;0.80;;;;;;;3.42;100.00;98971.88;5070806;28;20052;-68
2022/04/11 10:53:06;;;;;;;2.33;0.90;;;;;;;3.41;100.00;98978.66;5071414;28;20049;-68
2022/04/11 10:55:36;;;;;;;3.88;1.17;;;;;;;3.34;100.00;98977.63;5074355;28;20052;-68
2022/04/11 10:58:05;;;;;;;5.93;1.52;;;;;;;3.36;100.00;98986.19;5072216;28;20356;-68
2022/04/11 11:00:36;;;;;;;5.50;1.40;;;;;;;3.38;100.00;98996.47;5070994;28;20083;-68
2022/04/11 11:03:13;;;;;;;6.32;1.58;;;;;;;3.35;100.00;99004.06;5070644;28;20102;-68
2022/04/11 11:05:44;;;;;;;5.05;1.30;;;;;;;3.34;100.00;99013.41;5070684;28;20055;-68
2022/04/11 11:08:34;;;;;;;3.70;1.02;;;;;;;3.32;100.00;99019.28;5071343;28;20106;-68
2022/04/11 11:11:24;;;;;;;2.90;0.75;;;;;;;3.30;100.00;99019.25;5071352;28;20058;-68
2022/04/11 11:13:54;;;;;;;6.30;1.70;;;;;;;3.34;100.00;99027.88;5070280;28;20697;-69
2022/04/11 11:17:00;;;;;;;9.48;2.28;;;;;;;3.33;100.00;99032.13;5070593;28;20083;-68
2022/04/11 11:19:28;;;;;;;1.95;1.33;;;;;;;3.29;100.00;99035.38;5048457;27;20115;-68
2022/04/11 11:22:08;;;;;;;4.80;1.88;;;;;;;3.26;100.00;99045.53;5070280;28;20086;-68
2022/04/11 11:24:36;;;;;;;3.72;1.27;;;;;;;3.26;100.00;99042.13;5070120;28;20065;-69
2022/04/11 11:27:07;;;;;;;1.40;0.70;;;;;;;3.22;100.00;99055.63;5070476;28;20060;-69
2022/04/11 11:29:53;;;;;;;0.65;0.35;;;;;;;3.24;100.00;99064.19;5070164;28;20044;-69
2022/04/11 11:32:23;;;;;;;0.95;0.10;;;;;;;3.25;100.00;99068.47;5070031;28;20052;-68
2022/04/11 11:34:53;;;;;;;0.10;0.10;;;;;;;3.23;100.00;99067.56;5070443;28;20055;-68
2022/04/11 11:37:21;;;;;;;2.42;0.40;;;;;;;3.23;100.00;99075.22;5069929;28;20101;-69
2022/04/11 11:39:50;;;;;;;8.05;1.00;;;;;;;3.20;100.00;99081.13;5070539;28;20132;-68
2022/04/11 11:42:19;;;;;;;4.80;1.20;;;;;;;3.19;100.00;99079.38;5070033;28;20045;-70
2022/04/11 11:44:48;;;;;;;5.15;1.33;;;;;;;3.18;100.00;99087.00;5069670;28;20087;-70